createdAt,value
2022-10-18T00:02:37.429Z,3.98
2022-10-18T00:07:41.163Z,4.00
2022-10-18T00:17:55.492Z,4.07
2022-10-18T00:22:59.770Z,4.20
2022-10-18T00:28:04.935Z,4.34
2022-10-18T00:33:08.582Z,4.14
2022-10-18T00:38:12.460Z,4.19
2022-10-18T00:43:19.629Z,4.22
2022-10-18T00:48:23.833Z,4.09
2022-10-18T00:53:27.457Z,3.83
2022-10-18T00:58:32.737Z,3.73
2022-10-18T01:03:36.706Z,3.99
2022-10-18T01:08:46.228Z,4.35
2022-10-18T01:13:57.971Z,4.57
2022-10-18T01:19:04.462Z,4.72
2022-10-18T01:24:32.142Z,4.38
2022-10-18T01:29:46.097Z,3.90
2022-10-18T01:34:54.142Z,3.58
2022-10-18T01:40:01.210Z,3.40
2022-10-18T01:45:05.560Z,3.35
2022-10-18T01:50:11.227Z,3.26
2022-10-18T01:55:15.068Z,3.33
2022-10-18T02:00:20.653Z,3.36
2022-10-18T02:05:29.301Z,3.49
2022-10-18T02:10:36.006Z,3.42
2022-10-18T02:15:41.835Z,3.38
2022-10-18T02:20:50.282Z,3.33
2022-10-18T02:25:54.580Z,3.33
2022-10-18T02:31:01.473Z,3.52
2022-10-18T02:36:11.327Z,3.43
2022-10-18T02:41:23.359Z,3.71
2022-10-18T02:51:37.190Z,2.80
2022-10-18T02:56:40.898Z,2.61
2022-10-18T03:01:44.582Z,2.40
2022-10-18T03:06:49.759Z,2.38
2022-10-18T03:11:53.372Z,2.26
2022-10-18T03:16:57.192Z,2.14
2022-10-18T03:22:02.329Z,1.89
2022-10-18T03:27:09.473Z,2.07
2022-10-18T03:32:13.171Z,2.03
2022-10-18T03:37:18.273Z,1.85
2022-10-18T03:42:21.903Z,2.07
2022-10-18T03:47:25.879Z,1.90
2022-10-18T03:52:31.303Z,1.95
2022-10-18T03:57:56.006Z,1.83
2022-10-18T04:03:05.848Z,1.80
2022-10-18T04:08:11.100Z,1.79
2022-10-18T04:13:18.337Z,1.61
2022-10-18T04:18:22.244Z,1.66
2022-10-18T04:23:27.616Z,1.53
2022-10-18T04:28:32.223Z,1.81
2022-10-18T04:33:42.453Z,1.93
2022-10-18T04:38:47.831Z,2.03
2022-10-18T04:43:51.423Z,1.87
2022-10-18T04:48:55.131Z,2.16
2022-10-18T04:54:02.656Z,2.13
2022-10-18T04:59:06.290Z,1.88
2022-10-18T05:04:10.307Z,1.86
2022-10-18T05:09:15.415Z,1.75
2022-10-18T05:14:19.018Z,1.92
2022-10-18T05:19:22.719Z,2.14
2022-10-18T05:24:28.018Z,2.40
2022-10-18T05:29:31.768Z,2.92
2022-10-18T05:34:35.424Z,3.41
2022-10-18T05:39:40.468Z,3.91
2022-10-18T05:44:44.056Z,4.36
2022-10-18T05:49:47.791Z,5.20
2022-10-18T05:54:53.337Z,5.95
2022-10-18T05:59:56.919Z,6.44
2022-10-18T06:05:00.509Z,7.21
2022-10-18T06:10:05.810Z,7.88
2022-10-18T06:15:09.637Z,8.40
2022-10-18T06:20:13.185Z,8.70
2022-10-18T06:25:18.498Z,9.09
2022-10-18T06:36:38.686Z,10.23
2022-10-18T06:41:43.907Z,10.59
2022-10-18T06:46:56.621Z,11.15
2022-10-18T06:52:00.905Z,10.86
2022-10-18T06:57:06.015Z,11.21
2022-10-18T07:02:11.806Z,11.56
2022-10-18T07:07:15.414Z,12.47
2022-10-18T07:12:20.399Z,13.25
2022-10-18T07:17:24.189Z,12.82
2022-10-18T07:22:30.256Z,12.71
2022-10-18T07:27:38.932Z,12.48
2022-10-18T07:32:42.734Z,12.75
2022-10-18T07:37:46.582Z,13.11
2022-10-18T07:42:51.642Z,13.06
2022-10-18T07:47:55.871Z,13.97
2022-10-18T07:52:59.481Z,14.69
2022-10-18T07:58:04.510Z,14.87
2022-10-18T08:03:08.151Z,15.28
2022-10-18T08:08:11.838Z,15.70
2022-10-18T08:13:17.627Z,15.68
2022-10-18T08:18:21.285Z,15.79
2022-10-18T08:23:24.968Z,16.07
2022-10-18T08:28:30.091Z,16.21
2022-10-18T08:33:34.168Z,16.31
2022-10-18T08:38:38.573Z,16.82
2022-10-18T08:43:47.507Z,17.25
2022-10-18T08:48:54.269Z,16.50
2022-10-18T08:54:01.345Z,16.16
2022-10-18T08:59:11.449Z,18.34
2022-10-18T09:04:30.077Z,18.47
2022-10-18T09:10:04.954Z,18.62
2022-10-18T09:15:14.443Z,18.30
2022-10-18T09:20:24.918Z,19.08
2022-10-18T09:25:39.269Z,19.25
2022-10-18T09:30:58.726Z,19.79
2022-10-18T09:36:08.495Z,19.67
2022-10-18T09:41:27.330Z,20.31
2022-10-18T09:46:35.229Z,19.95
2022-10-18T09:51:40.120Z,20.26
2022-10-18T09:56:47.238Z,20.66
2022-10-18T10:01:52.267Z,20.48
2022-10-18T10:06:56.715Z,21.05
2022-10-18T10:12:02.470Z,20.70
2022-10-18T10:17:23.722Z,20.14
2022-10-18T10:22:28.797Z,22.05
2022-10-18T10:27:36.210Z,22.26
2022-10-18T10:32:48.888Z,22.09
2022-10-18T10:37:52.995Z,22.07
2022-10-18T10:43:08.843Z,22.01
2022-10-18T10:48:23.780Z,22.20
2022-10-18T10:53:45.433Z,21.39
2022-10-18T10:58:50.080Z,22.27
2022-10-18T11:03:57.367Z,22.01
2022-10-18T11:09:02.823Z,22.29
2022-10-18T11:14:25.316Z,22.39
2022-10-18T11:19:36.279Z,22.91
2022-10-18T11:24:39.871Z,22.83
2022-10-18T11:29:53.842Z,22.94
2022-10-18T11:35:04.595Z,23.65
2022-10-18T11:40:15.917Z,22.86
2022-10-18T11:45:25.948Z,23.08
2022-10-18T11:50:35.535Z,23.17
2022-10-18T11:55:44.078Z,23.06
2022-10-18T12:00:52.215Z,22.94
2022-10-18T12:06:06.970Z,22.69
2022-10-18T12:11:19.557Z,23.09
2022-10-18T12:16:49.458Z,23.18
2022-10-18T12:21:53.904Z,22.68
2022-10-18T12:26:59.617Z,22.45
2022-10-18T12:32:14.273Z,22.19
2022-10-18T12:37:33.239Z,22.60
2022-10-18T12:42:42.022Z,22.79
2022-10-18T12:47:45.768Z,22.08
2022-10-18T12:53:06.109Z,21.93
2022-10-18T12:58:33.319Z,22.08
2022-10-18T13:03:59.733Z,22.55
2022-10-18T13:09:22.184Z,21.69
2022-10-18T13:14:38.776Z,21.38
2022-10-18T13:20:07.697Z,21.18
2022-10-18T13:25:22.703Z,21.48
2022-10-18T13:30:35.184Z,21.21
2022-10-18T13:35:51.951Z,20.90
2022-10-18T13:41:06.272Z,20.49
2022-10-18T13:46:10.177Z,20.49
2022-10-18T13:51:23.657Z,19.79
2022-10-18T13:56:43.068Z,19.79
2022-10-18T14:01:53.546Z,19.63
2022-10-18T14:07:02.161Z,19.25
2022-10-18T14:12:15.829Z,19.03
2022-10-18T14:23:03.837Z,17.87
2022-10-18T14:28:13.017Z,17.22
2022-10-18T14:33:26.835Z,16.72
2022-10-18T14:38:31.029Z,16.25
2022-10-18T14:43:36.051Z,16.11
2022-10-18T14:48:39.822Z,15.90
2022-10-18T14:53:47.895Z,15.71
2022-10-18T14:58:57.834Z,15.37
2022-10-18T15:04:03.219Z,14.71
2022-10-18T15:09:07.354Z,14.05
2022-10-18T15:14:15.467Z,13.54
2022-10-18T15:19:29.672Z,13.43
2022-10-18T15:24:35.039Z,13.13
2022-10-18T15:35:25.719Z,13.03
2022-10-18T15:40:32.567Z,12.93
2022-10-18T15:46:01.804Z,12.90
2022-10-18T15:51:11.681Z,12.59
2022-10-18T15:56:28.323Z,12.27
2022-10-18T16:01:36.627Z,12.08
2022-10-18T16:06:40.361Z,11.95
2022-10-18T16:11:56.593Z,11.72
2022-10-18T16:17:03.430Z,11.79
2022-10-18T16:22:08.051Z,11.43
2022-10-18T16:27:14.226Z,11.25
2022-10-18T16:32:23.588Z,11.04
2022-10-18T16:37:30.701Z,10.57
2022-10-18T16:42:47.048Z,10.58
2022-10-18T16:48:02.785Z,10.30
2022-10-18T16:53:15.716Z,10.14
2022-10-18T16:58:20.145Z,10.06
2022-10-18T17:03:25.480Z,9.94
2022-10-18T17:08:29.410Z,9.68
2022-10-18T17:13:38.824Z,9.49
2022-10-18T17:18:45.068Z,9.41
2022-10-18T17:23:48.957Z,9.42
2022-10-18T17:29:08.630Z,9.25
2022-10-18T17:34:47.731Z,9.32
2022-10-18T17:40:59.900Z,9.18
2022-10-18T17:46:24.321Z,8.98
2022-10-18T17:51:34.629Z,8.81
2022-10-18T17:56:39.000Z,8.80
2022-10-18T18:07:01.354Z,8.63
2022-10-18T18:17:56.722Z,8.61
2022-10-18T18:23:08.731Z,8.32
2022-10-18T18:28:14.642Z,8.27
2022-10-18T18:33:26.201Z,8.19
2022-10-18T18:38:32.840Z,8.17
2022-10-18T18:43:36.589Z,8.09
2022-10-18T18:48:49.625Z,8.09
2022-10-18T18:53:56.511Z,8.05
2022-10-18T18:59:26.713Z,8.11
2022-10-18T19:04:42.029Z,8.20
2022-10-18T19:09:47.307Z,7.82
2022-10-18T19:15:23.835Z,7.61
2022-10-18T19:20:40.067Z,7.45
2022-10-18T19:25:50.004Z,7.26
2022-10-18T19:30:56.318Z,7.17
2022-10-18T19:36:08.907Z,7.02
2022-10-18T19:41:14.752Z,6.98
2022-10-18T19:46:19.888Z,7.01
2022-10-18T19:51:28.153Z,6.84
2022-10-18T19:56:32.342Z,6.71
2022-10-18T20:01:36.046Z,6.75
2022-10-18T20:06:41.210Z,6.68
2022-10-18T20:11:52.688Z,6.70
2022-10-18T20:16:59.049Z,6.63
2022-10-18T20:22:04.152Z,6.64
2022-10-18T20:27:07.731Z,6.59
2022-10-18T20:32:11.316Z,6.43
2022-10-18T20:37:18.759Z,6.26
2022-10-18T20:42:23.354Z,6.28
2022-10-18T20:47:27.020Z,5.96
2022-10-18T20:52:33.025Z,6.09
2022-10-18T20:57:38.452Z,5.95
2022-10-18T21:02:49.743Z,6.06
2022-10-18T21:08:16.506Z,6.20
2022-10-18T21:13:22.650Z,6.13
2022-10-18T21:18:27.232Z,6.27
2022-10-18T21:23:32.720Z,6.38
2022-10-18T21:28:36.383Z,6.25
2022-10-18T21:33:40.038Z,6.37
2022-10-18T21:38:46.878Z,6.35
2022-10-18T21:43:53.203Z,6.25
2022-10-18T21:48:57.656Z,6.21
2022-10-18T21:54:03.139Z,6.07
2022-10-18T21:59:06.974Z,6.09
2022-10-18T22:04:18.968Z,6.16
2022-10-18T22:09:24.080Z,6.23
2022-10-18T22:14:29.832Z,6.33
2022-10-18T22:19:33.455Z,6.46
2022-10-18T22:24:38.533Z,6.49
2022-10-18T22:29:43.499Z,5.93
2022-10-18T22:34:47.137Z,5.64
2022-10-18T22:39:52.231Z,5.80
2022-10-18T22:44:55.890Z,5.37
2022-10-18T22:49:59.517Z,5.14
2022-10-18T22:55:07.693Z,5.23
2022-10-18T23:00:12.133Z,5.04
2022-10-18T23:05:16.586Z,4.95
2022-10-18T23:10:21.723Z,4.89
2022-10-18T23:15:25.472Z,4.84
2022-10-18T23:20:29.159Z,4.89
2022-10-18T23:25:35.917Z,5.11
2022-10-18T23:30:39.746Z,5.08
2022-10-18T23:35:43.501Z,5.12
2022-10-18T23:40:48.758Z,4.96
2022-10-18T23:45:52.383Z,4.56
2022-10-18T23:50:59.584Z,4.38
2022-10-18T23:56:05.957Z,4.32
